createdAt,value
2019-03-28T00:02:16.603Z,33.20
2019-03-28T00:04:47.541Z,38.57
2019-03-28T00:07:18.550Z,42.30
2019-03-28T00:09:49.522Z,38.73
2019-03-28T00:12:21.591Z,38.10
2019-03-28T00:14:53.963Z,34.90
2019-03-28T00:17:26.235Z,32.53
2019-03-28T00:19:58.453Z,39.30
2019-03-28T00:22:51.149Z,41.70
2019-03-28T00:25:22.317Z,35.17
2019-03-28T00:27:53.334Z,35.73
2019-03-28T00:30:24.375Z,31.63
2019-03-28T00:32:55.488Z,34.00
2019-03-28T00:35:26.765Z,29.70
2019-03-28T00:37:57.810Z,33.47
2019-03-28T00:40:30.271Z,36.03
2019-03-28T00:43:02.415Z,32.47
2019-03-28T00:45:34.925Z,31.83
2019-03-28T00:48:05.863Z,33.53
2019-03-28T00:50:36.847Z,32.00
2019-03-28T00:53:08.014Z,37.60
2019-03-28T00:55:40.626Z,43.90
2019-03-28T00:58:11.564Z,39.87
2019-03-28T01:00:42.504Z,40.17
2019-03-28T01:03:20.412Z,34.27
2019-03-28T01:05:51.358Z,36.33
2019-03-28T01:08:22.283Z,39.07
2019-03-28T01:10:53.291Z,32.13
2019-03-28T01:13:24.270Z,39.60
2019-03-28T01:15:55.409Z,39.03
2019-03-28T01:18:26.534Z,39.73
2019-03-28T01:20:57.534Z,44.70
2019-03-28T01:23:28.430Z,37.00
2019-03-28T01:25:59.368Z,35.60
2019-03-28T01:28:30.409Z,38.07
2019-03-28T01:31:02.782Z,38.00
2019-03-28T01:33:34.030Z,44.67
2019-03-28T01:36:05.011Z,42.17
2019-03-28T01:38:37.329Z,41.73
2019-03-28T01:41:08.353Z,36.10
2019-03-28T01:43:40.629Z,34.10
2019-03-28T01:46:11.682Z,34.03
2019-03-28T01:48:42.632Z,41.73
2019-03-28T01:51:13.619Z,45.97
2019-03-28T01:53:44.716Z,42.37
2019-03-28T01:56:15.654Z,44.50
2019-03-28T01:58:46.711Z,56.37
2019-03-28T02:01:17.742Z,39.77
2019-03-28T02:03:48.776Z,40.27
2019-03-28T02:06:19.706Z,51.97
2019-03-28T02:08:50.862Z,51.00
2019-03-28T02:11:21.869Z,47.07
2019-03-28T02:13:54.480Z,43.60
2019-03-28T02:16:25.627Z,56.10
2019-03-28T02:18:56.567Z,39.50
2019-03-28T02:21:28.630Z,38.00
2019-03-28T02:24:01.334Z,44.23
2019-03-28T02:26:34.440Z,43.20
2019-03-28T02:29:05.509Z,44.13
2019-03-28T02:31:36.489Z,36.53
2019-03-28T02:34:07.470Z,43.10
2019-03-28T02:36:38.412Z,46.90
2019-03-28T02:39:09.391Z,49.47
2019-03-28T02:41:40.342Z,51.43
2019-03-28T02:44:11.959Z,41.27
2019-03-28T02:46:43.127Z,46.27
2019-03-28T02:49:14.082Z,46.63
2019-03-28T02:51:45.016Z,49.87
2019-03-28T02:54:16.221Z,56.13
2019-03-28T02:56:47.102Z,51.57
2019-03-28T02:59:18.041Z,54.77
2019-03-28T03:01:50.004Z,48.67
2019-03-28T03:04:21.043Z,57.10
2019-03-28T03:06:51.969Z,47.30
2019-03-28T03:09:22.991Z,54.77
2019-03-28T03:11:53.961Z,60.20
2019-03-28T03:14:24.904Z,49.90
2019-03-28T03:16:55.841Z,50.00
2019-03-28T03:19:26.778Z,60.10
2019-03-28T03:21:57.782Z,48.10
2019-03-28T03:24:28.647Z,42.97
2019-03-28T03:26:59.904Z,56.23
2019-03-28T03:29:30.913Z,51.47
2019-03-28T03:32:01.887Z,58.27
2019-03-28T03:34:33.567Z,51.53
2019-03-28T03:37:04.628Z,56.67
2019-03-28T03:39:35.522Z,55.80
2019-03-28T03:42:07.779Z,54.47
2019-03-28T03:44:38.730Z,54.67
2019-03-28T03:47:10.912Z,59.77
2019-03-28T03:49:43.169Z,65.07
2019-03-28T03:52:14.176Z,50.57
2019-03-28T03:54:45.434Z,47.53
2019-03-28T03:57:16.599Z,57.07
2019-03-28T03:59:47.610Z,55.83
2019-03-28T04:02:18.592Z,64.00
2019-03-28T04:04:49.519Z,58.47
2019-03-28T04:07:20.457Z,59.83
2019-03-28T04:09:51.400Z,62.20
2019-03-28T04:12:22.414Z,57.80
2019-03-28T04:14:53.379Z,64.60
2019-03-28T04:17:24.522Z,67.97
2019-03-28T04:19:55.526Z,63.77
2019-03-28T04:22:27.595Z,66.20
2019-03-28T04:25:00.233Z,62.87
2019-03-28T04:27:31.449Z,61.87
2019-03-28T04:30:02.525Z,67.53
2019-03-28T04:32:33.533Z,57.57
2019-03-28T04:35:04.679Z,63.77
2019-03-28T04:37:35.670Z,66.43
2019-03-28T04:40:08.511Z,69.67
2019-03-28T04:42:40.014Z,69.50
2019-03-28T04:45:11.507Z,65.33
2019-03-28T04:47:42.444Z,62.87
2019-03-28T04:50:13.654Z,65.97
2019-03-28T04:52:45.552Z,59.77
2019-03-28T04:55:16.592Z,61.73
2019-03-28T04:57:47.530Z,70.03
2019-03-28T05:00:19.347Z,64.87
2019-03-28T05:02:50.536Z,62.60
2019-03-28T05:05:21.542Z,68.60
2019-03-28T05:07:52.412Z,64.63
2019-03-28T05:10:24.642Z,74.40
2019-03-28T05:12:55.626Z,77.90
2019-03-28T05:15:26.563Z,73.27
2019-03-28T05:17:58.729Z,66.23
2019-03-28T05:20:38.086Z,72.93
2019-03-28T05:23:09.105Z,67.73
2019-03-28T05:25:40.034Z,79.77
2019-03-28T05:28:11.058Z,97.07
2019-03-28T05:30:43.298Z,88.83
2019-03-28T05:33:14.503Z,75.37
2019-03-28T05:35:45.484Z,70.97
2019-03-28T05:38:16.588Z,78.20
2019-03-28T05:40:47.522Z,70.50
2019-03-28T05:43:18.460Z,68.50
2019-03-28T05:45:49.605Z,73.67
2019-03-28T05:48:20.626Z,71.50
2019-03-28T05:50:51.585Z,77.37
2019-03-28T05:53:22.549Z,77.07
2019-03-28T05:55:53.565Z,83.77
2019-03-28T05:58:24.576Z,85.93
2019-03-28T06:00:55.443Z,73.17
2019-03-28T06:03:27.614Z,72.20
2019-03-28T06:05:59.868Z,67.73
2019-03-28T06:08:30.823Z,65.77
2019-03-28T06:11:03.398Z,73.47
2019-03-28T06:13:34.418Z,80.07
2019-03-28T06:16:06.921Z,75.40
2019-03-28T06:18:37.842Z,91.90
2019-03-28T06:21:08.798Z,79.73
2019-03-28T06:23:39.798Z,80.60
2019-03-28T06:26:10.671Z,92.13
2019-03-28T06:28:41.609Z,84.60
2019-03-28T06:31:12.754Z,83.37
2019-03-28T06:33:43.847Z,82.77
2019-03-28T06:36:15.087Z,79.33
2019-03-28T06:38:46.127Z,80.83
2019-03-28T06:41:17.191Z,68.13
2019-03-28T06:43:48.062Z,66.17
2019-03-28T06:46:19.659Z,64.77
2019-03-28T06:48:51.467Z,61.83
2019-03-28T06:51:22.587Z,60.43
2019-03-28T06:53:53.661Z,53.97
2019-03-28T06:56:25.509Z,53.77
2019-03-28T06:58:56.768Z,54.40
2019-03-28T07:01:28.732Z,44.20
2019-03-28T07:03:59.670Z,44.77
2019-03-28T07:06:30.754Z,41.17
2019-03-28T07:09:01.653Z,39.80
2019-03-28T07:11:32.696Z,35.57
2019-03-28T07:14:03.742Z,34.03
2019-03-28T07:16:34.748Z,32.83
2019-03-28T07:19:05.713Z,31.93
2019-03-28T07:21:37.692Z,29.83
2019-03-28T07:24:08.616Z,27.63
2019-03-28T07:26:39.863Z,26.53
2019-03-28T07:29:10.878Z,25.20
2019-03-28T07:31:41.846Z,26.43
2019-03-28T07:34:13.695Z,23.83
2019-03-28T07:36:44.845Z,23.70
2019-03-28T07:39:18.864Z,23.23
2019-03-28T07:41:48.467Z,20.87
2019-03-28T07:44:19.475Z,21.53
2019-03-28T07:46:50.455Z,22.30
2019-03-28T07:49:21.384Z,22.27
2019-03-28T07:51:52.323Z,19.60
2019-03-28T07:54:23.262Z,18.60
2019-03-28T07:56:54.376Z,20.20
2019-03-28T07:59:25.346Z,23.53
2019-03-28T08:01:57.308Z,17.27
2019-03-28T08:04:28.247Z,17.37
2019-03-28T08:06:59.186Z,19.00
2019-03-28T08:09:36.551Z,16.55
2019-03-28T08:12:03.317Z,18.62
2019-03-28T08:14:34.246Z,14.95
2019-03-28T08:17:05.266Z,13.05
2019-03-28T08:19:36.236Z,17.20
2019-03-28T08:22:07.276Z,13.65
2019-03-28T08:24:38.217Z,12.63
2019-03-28T08:27:09.227Z,12.25
2019-03-28T08:29:40.301Z,13.98
2019-03-28T08:32:15.665Z,14.47
2019-03-28T08:34:46.688Z,10.20
2019-03-28T08:37:18.247Z,15.63
2019-03-28T08:39:49.280Z,17.40
2019-03-28T08:42:21.244Z,11.30
2019-03-28T08:44:52.179Z,15.30
2019-03-28T08:47:23.118Z,13.53
2019-03-28T08:49:54.057Z,12.75
2019-03-28T08:52:25.079Z,11.30
2019-03-28T08:55:03.426Z,14.40
2019-03-28T08:57:34.141Z,12.63
2019-03-28T09:00:07.854Z,14.53
2019-03-28T09:02:38.888Z,15.00
2019-03-28T09:05:10.035Z,13.18
2019-03-28T09:07:41.042Z,11.50
2019-03-28T09:10:13.297Z,10.53
2019-03-28T09:12:44.784Z,10.60
2019-03-28T09:15:16.044Z,13.90
2019-03-28T09:17:46.988Z,12.18
2019-03-28T09:20:18.636Z,11.68
2019-03-28T09:22:49.647Z,11.80
2019-03-28T09:25:20.617Z,10.38
2019-03-28T09:27:51.772Z,10.58
2019-03-28T09:30:47.322Z,9.00
2019-03-28T09:33:11.622Z,13.32
2019-03-28T09:35:42.609Z,10.90
2019-03-28T09:38:13.712Z,10.50
2019-03-28T09:40:44.992Z,10.05
2019-03-28T09:43:16.145Z,11.73
2019-03-28T09:45:47.086Z,11.48
2019-03-28T09:48:19.197Z,11.88
2019-03-28T09:50:50.083Z,11.93
2019-03-28T09:53:22.057Z,9.65
2019-03-28T09:55:52.990Z,14.10
2019-03-28T09:58:24.229Z,10.80
2019-03-28T10:01:02.640Z,9.73
2019-03-28T10:03:28.872Z,9.60
2019-03-28T10:05:59.823Z,10.60
2019-03-28T10:08:30.735Z,12.35
2019-03-28T10:11:01.710Z,12.98
2019-03-28T10:13:34.264Z,10.78
2019-03-28T10:16:05.223Z,13.18
2019-03-28T10:18:36.129Z,12.75
2019-03-28T10:21:07.185Z,13.80
2019-03-28T10:23:39.956Z,9.45
2019-03-28T10:26:11.023Z,10.68
2019-03-28T10:28:43.178Z,10.48
2019-03-28T10:31:16.675Z,14.13
2019-03-28T10:33:47.515Z,12.00
2019-03-28T10:36:18.555Z,11.40
2019-03-28T10:38:49.546Z,11.03
2019-03-28T10:41:20.602Z,9.88
2019-03-28T10:43:51.579Z,12.82
2019-03-28T10:46:22.618Z,9.88
2019-03-28T10:48:54.541Z,10.63
2019-03-28T10:51:25.605Z,12.10
2019-03-28T10:53:56.540Z,12.82
2019-03-28T10:56:27.480Z,11.15
2019-03-28T10:58:58.490Z,12.75
2019-03-28T11:01:41.926Z,13.60
2019-03-28T11:04:02.042Z,10.15
2019-03-28T11:06:32.977Z,13.25
2019-03-28T11:09:05.066Z,10.95
2019-03-28T11:11:36.256Z,10.48
2019-03-28T11:14:08.368Z,11.88
2019-03-28T11:16:39.329Z,9.35
2019-03-28T11:19:10.236Z,12.43
2019-03-28T11:21:41.389Z,10.95
2019-03-28T11:24:12.388Z,11.90
2019-03-28T11:26:43.361Z,11.33
2019-03-28T11:29:14.297Z,11.15
2019-03-28T11:31:46.914Z,11.35
2019-03-28T11:34:17.881Z,12.33
2019-03-28T11:36:48.753Z,12.73
2019-03-28T11:39:20.874Z,10.88
2019-03-28T11:41:51.985Z,11.30
2019-03-28T11:44:24.438Z,11.33
2019-03-28T11:46:55.452Z,10.13
2019-03-28T11:49:27.089Z,13.08
2019-03-28T11:51:58.241Z,13.38
2019-03-28T11:54:29.217Z,11.63
2019-03-28T11:57:00.256Z,15.28
2019-03-28T11:59:31.198Z,11.30
2019-03-28T12:02:18.578Z,9.75
2019-03-28T12:04:34.714Z,11.75
2019-03-28T12:07:05.562Z,10.28
2019-03-28T12:09:36.604Z,10.28
2019-03-28T12:12:07.705Z,9.50
2019-03-28T12:14:38.561Z,9.58
2019-03-28T12:17:09.616Z,10.70
2019-03-28T12:19:40.809Z,12.13
2019-03-28T12:22:12.119Z,11.80
2019-03-28T12:24:43.179Z,10.10
2019-03-28T12:27:14.131Z,9.73
2019-03-28T12:29:45.094Z,9.30
2019-03-28T12:32:16.069Z,6.78
2019-03-28T12:34:47.007Z,12.35
2019-03-28T12:37:17.951Z,9.93
2019-03-28T12:39:48.905Z,7.30
2019-03-28T12:42:19.935Z,9.68
2019-03-28T12:44:56.881Z,9.90
2019-03-28T12:47:23.563Z,11.50
2019-03-28T12:49:54.433Z,9.85
2019-03-28T12:52:25.484Z,10.05
2019-03-28T12:54:56.269Z,9.90
2019-03-28T12:57:27.209Z,10.50
2019-03-28T12:59:58.306Z,10.63
2019-03-28T13:02:31.908Z,11.00
2019-03-28T13:05:02.018Z,10.35
2019-03-28T13:07:32.910Z,15.05
2019-03-28T13:10:04.053Z,9.78
2019-03-28T13:12:34.888Z,10.70
2019-03-28T13:15:06.332Z,11.40
2019-03-28T13:17:37.265Z,12.00
2019-03-28T13:20:10.734Z,10.05
2019-03-28T13:22:41.729Z,9.85
2019-03-28T13:25:12.752Z,14.98
2019-03-28T13:27:43.761Z,13.68
2019-03-28T13:30:15.346Z,11.38
2019-03-28T13:32:46.354Z,10.90
2019-03-28T13:35:17.333Z,11.38
2019-03-28T13:37:48.485Z,12.23
2019-03-28T13:40:19.437Z,13.05
2019-03-28T13:42:53.027Z,14.45
2019-03-28T13:45:23.548Z,11.08
2019-03-28T13:47:54.524Z,10.40
2019-03-28T13:50:25.617Z,10.70
2019-03-28T13:52:56.617Z,12.82
2019-03-28T13:55:27.496Z,9.90
2019-03-28T13:57:58.433Z,9.75
2019-03-28T14:00:33.686Z,12.13
2019-03-28T14:03:05.738Z,12.33
2019-03-28T14:05:36.748Z,12.88
2019-03-28T14:08:07.605Z,14.53
2019-03-28T14:10:38.657Z,11.88
2019-03-28T14:13:09.599Z,13.90
2019-03-28T14:15:40.548Z,11.85
2019-03-28T14:18:11.553Z,13.30
2019-03-28T14:20:42.414Z,13.78
2019-03-28T14:23:13.353Z,16.30
2019-03-28T14:25:44.347Z,12.18
2019-03-28T14:28:15.315Z,14.05
2019-03-28T14:30:46.279Z,12.68
2019-03-28T14:33:17.213Z,10.95
2019-03-28T14:35:48.153Z,12.78
2019-03-28T14:38:19.167Z,11.15
2019-03-28T14:40:50.083Z,9.73
2019-03-28T14:43:21.389Z,12.75
2019-03-28T14:45:52.402Z,13.25
2019-03-28T14:48:23.357Z,14.75
2019-03-28T14:50:54.398Z,10.00
2019-03-28T14:53:25.349Z,12.85
2019-03-28T14:55:57.773Z,13.38
2019-03-28T14:58:30.072Z,11.50
2019-03-28T15:01:01.136Z,14.13
2019-03-28T15:03:32.069Z,12.65
2019-03-28T15:06:03.222Z,14.55
2019-03-28T15:08:34.217Z,12.65
2019-03-28T15:11:05.095Z,15.75
2019-03-28T15:13:36.025Z,14.25
2019-03-28T15:16:07.180Z,14.87
2019-03-28T15:18:38.182Z,18.48
2019-03-28T15:21:09.059Z,16.48
2019-03-28T15:23:39.996Z,14.60
2019-03-28T15:26:11.140Z,13.68
2019-03-28T15:28:42.223Z,16.85
2019-03-28T15:31:13.109Z,14.13
2019-03-28T15:33:44.049Z,15.32
2019-03-28T15:36:14.985Z,14.90
2019-03-28T15:38:45.926Z,11.20
2019-03-28T15:41:16.944Z,12.95
2019-03-28T15:43:47.932Z,12.93
2019-03-28T15:46:18.845Z,11.12
2019-03-28T15:48:50.002Z,10.43
2019-03-28T15:51:21.002Z,15.30
2019-03-28T15:53:51.878Z,14.33
2019-03-28T15:56:22.805Z,12.95
2019-03-28T15:58:53.965Z,11.90
2019-03-28T16:01:25.197Z,16.57
2019-03-28T16:03:56.132Z,16.27
2019-03-28T16:06:27.070Z,13.32
2019-03-28T16:08:58.017Z,15.30
2019-03-28T16:11:29.026Z,13.32
2019-03-28T16:13:59.901Z,15.32
2019-03-28T16:16:30.829Z,18.92
2019-03-28T16:19:01.974Z,18.30
2019-03-28T16:21:32.981Z,15.83
2019-03-28T16:24:03.855Z,13.75
2019-03-28T16:26:34.795Z,15.65
2019-03-28T16:29:05.833Z,13.83
2019-03-28T16:31:36.819Z,17.23
2019-03-28T16:34:07.766Z,13.58
2019-03-28T16:36:38.760Z,13.48
2019-03-28T16:39:09.690Z,12.35
2019-03-28T16:41:40.658Z,15.65
2019-03-28T16:44:11.888Z,16.20
2019-03-28T16:46:42.813Z,13.40
2019-03-28T16:49:13.756Z,14.75
2019-03-28T16:51:44.769Z,13.05
2019-03-28T16:54:15.804Z,15.53
2019-03-28T16:56:46.674Z,13.72
2019-03-28T16:59:17.817Z,13.93
2019-03-28T17:01:48.913Z,14.35
2019-03-28T17:04:21.246Z,14.07
2019-03-28T17:06:53.101Z,16.02
2019-03-28T17:09:24.953Z,15.48
2019-03-28T17:11:55.791Z,16.07
2019-03-28T17:14:26.800Z,21.35
2019-03-28T17:16:57.665Z,15.20
2019-03-28T17:19:28.605Z,14.20
2019-03-28T17:21:59.545Z,11.97
2019-03-28T17:24:30.482Z,14.77
2019-03-28T17:27:01.488Z,12.63
2019-03-28T17:29:32.358Z,15.50
2019-03-28T17:32:03.302Z,13.30
2019-03-28T17:34:36.239Z,12.87
2019-03-28T17:37:06.881Z,15.03
2019-03-28T17:39:37.753Z,16.83
2019-03-28T17:42:08.731Z,18.33
2019-03-28T17:44:39.681Z,17.30
2019-03-28T17:47:10.743Z,16.80
2019-03-28T17:49:41.829Z,15.77
2019-03-28T17:52:12.753Z,16.07
2019-03-28T17:54:43.695Z,14.87
2019-03-28T17:57:14.704Z,17.70
2019-03-28T17:59:45.673Z,16.57
2019-03-28T18:02:16.921Z,13.97
2019-03-28T18:04:48.437Z,18.20
2019-03-28T18:07:20.517Z,18.27
2019-03-28T18:09:51.377Z,20.83
2019-03-28T18:12:22.360Z,18.70
2019-03-28T18:14:53.370Z,17.17
2019-03-28T18:17:24.298Z,17.60
2019-03-28T18:19:55.305Z,18.83
2019-03-28T18:22:26.278Z,18.90
2019-03-28T18:24:57.328Z,20.03
2019-03-28T18:27:28.357Z,22.47
2019-03-28T18:29:59.384Z,18.47
2019-03-28T18:32:30.965Z,17.67
2019-03-28T18:35:05.820Z,26.67
2019-03-28T18:37:35.813Z,21.87
2019-03-28T18:40:07.767Z,21.23
2019-03-28T18:42:38.739Z,28.00
2019-03-28T18:45:12.701Z,28.07
2019-03-28T18:47:44.895Z,23.57
2019-03-28T18:50:16.024Z,23.60
2019-03-28T18:52:46.966Z,23.20
2019-03-28T18:55:20.498Z,27.10
2019-03-28T18:57:50.444Z,24.27
2019-03-28T19:00:22.046Z,28.37
2019-03-28T19:02:53.234Z,26.30
2019-03-28T19:05:24.118Z,25.23
2019-03-28T19:07:55.106Z,27.17
2019-03-28T19:10:26.109Z,27.47
2019-03-28T19:12:56.893Z,22.83
2019-03-28T19:15:27.782Z,32.57
2019-03-28T19:17:59.718Z,30.97
2019-03-28T19:20:33.108Z,28.30
2019-03-28T19:23:07.018Z,23.30
2019-03-28T19:25:37.179Z,27.13
2019-03-28T19:28:08.325Z,26.73
2019-03-28T19:30:39.488Z,27.33
2019-03-28T19:33:10.602Z,34.87
2019-03-28T19:35:42.293Z,30.90
2019-03-28T19:38:16.702Z,27.57
2019-03-28T19:40:48.049Z,29.73
2019-03-28T19:43:21.178Z,30.23
2019-03-28T19:45:52.487Z,58.03
2019-03-28T19:48:23.627Z,30.13
2019-03-28T19:50:56.210Z,25.80
2019-03-28T19:53:28.376Z,25.93
2019-03-28T19:55:59.323Z,21.43
2019-03-28T19:58:30.974Z,27.50
2019-03-28T20:01:02.411Z,31.20
2019-03-28T20:03:33.595Z,26.40
2019-03-28T20:06:04.701Z,28.63
2019-03-28T20:08:36.042Z,25.17
2019-03-28T20:11:07.129Z,28.97
2019-03-28T20:13:38.537Z,23.77
2019-03-28T20:16:09.718Z,23.73
2019-03-28T20:18:44.278Z,21.20
2019-03-28T20:21:15.424Z,31.20
2019-03-28T20:23:46.491Z,25.90
2019-03-28T20:26:19.765Z,23.90
2019-03-28T20:28:50.293Z,28.20
2019-03-28T20:31:21.256Z,29.73
2019-03-28T20:33:52.499Z,31.07
2019-03-28T20:36:36.923Z,27.87
2019-03-28T20:39:03.803Z,35.37
2019-03-28T20:41:29.740Z,35.97
2019-03-28T20:44:00.583Z,35.87
2019-03-28T20:46:31.606Z,36.80
2019-03-28T20:49:02.525Z,37.03
2019-03-28T20:51:33.454Z,38.83
2019-03-28T20:54:07.649Z,37.53
2019-03-28T20:56:37.482Z,37.77
2019-03-28T20:59:08.749Z,31.93
2019-03-28T21:01:42.469Z,36.77
2019-03-28T21:04:12.880Z,35.67
2019-03-28T21:06:45.079Z,41.97
2019-03-28T21:09:16.214Z,31.83
2019-03-28T21:11:49.009Z,37.17
2019-03-28T21:14:20.235Z,36.70
2019-03-28T21:16:51.410Z,34.53
2019-03-28T21:19:22.381Z,39.17
2019-03-28T21:21:55.020Z,39.20
2019-03-28T21:24:26.400Z,35.27
2019-03-28T21:26:57.422Z,32.77
2019-03-28T21:29:28.490Z,36.57
2019-03-28T21:32:00.665Z,41.67
2019-03-28T21:34:31.817Z,37.10
2019-03-28T21:37:06.165Z,35.47
2019-03-28T21:39:35.541Z,36.03
2019-03-28T21:42:07.328Z,35.73
2019-03-28T21:44:38.709Z,32.97
2019-03-28T21:47:09.805Z,35.13
2019-03-28T21:49:43.321Z,32.07
2019-03-28T21:52:14.580Z,38.37
2019-03-28T21:54:45.589Z,33.73
2019-03-28T21:57:17.560Z,34.70
2019-03-28T21:59:48.938Z,32.83
2019-03-28T22:02:20.134Z,30.60
2019-03-28T22:04:51.280Z,37.33
2019-03-28T22:07:22.326Z,35.20
2019-03-28T22:09:53.693Z,32.57
2019-03-28T22:12:24.982Z,33.53
2019-03-28T22:14:56.273Z,30.93
2019-03-28T22:17:27.307Z,32.77
2019-03-28T22:19:58.549Z,30.00
2019-03-28T22:22:29.477Z,31.60
2019-03-28T22:25:00.557Z,36.23
2019-03-28T22:27:31.777Z,30.67
2019-03-28T22:30:03.936Z,32.77
2019-03-28T22:32:36.177Z,33.83
2019-03-28T22:35:08.652Z,37.23
2019-03-28T22:37:40.773Z,30.07
2019-03-28T22:40:12.339Z,32.23
2019-03-28T22:42:43.661Z,31.73
2019-03-28T22:45:14.978Z,28.10
2019-03-28T22:47:46.139Z,34.20
2019-03-28T22:50:17.604Z,33.23
2019-03-28T22:52:51.819Z,31.43
2019-03-28T22:55:22.927Z,42.80
2019-03-28T22:57:54.247Z,31.07
2019-03-28T23:00:39.814Z,33.53
2019-03-28T23:03:10.850Z,27.60
2019-03-28T23:05:41.901Z,35.53
2019-03-28T23:08:13.015Z,35.33
2019-03-28T23:10:44.119Z,33.60
2019-03-28T23:13:15.087Z,35.00
2019-03-28T23:15:46.359Z,34.00
2019-03-28T23:18:17.268Z,38.33
2019-03-28T23:20:48.290Z,34.03
2019-03-28T23:23:19.254Z,35.23
2019-03-28T23:25:50.192Z,30.67
2019-03-28T23:28:21.129Z,34.80
2019-03-28T23:30:52.143Z,33.43
2019-03-28T23:33:23.109Z,36.03
2019-03-28T23:35:54.369Z,34.20
2019-03-28T23:38:25.366Z,35.93
2019-03-28T23:40:56.451Z,29.10
2019-03-28T23:43:27.435Z,42.30
2019-03-28T23:45:58.502Z,35.87
2019-03-28T23:48:29.438Z,44.37
2019-03-28T23:51:00.298Z,41.87
2019-03-28T23:53:31.245Z,36.27
2019-03-28T23:56:02.174Z,39.93
2019-03-28T23:58:33.190Z,36.77
